Flight Track Log - Related Links

Times and Time Zones

All times are in EDT time to prevent confusion due to time zone crossing. See the UPS2876 flight status page for this flight to view local times or setup timezone preferences in your user account.

Time Position Orientation Groundspeed Altitude Reporting Facility
EDT Latitude Longitude Course Direction KTS MPH feet Rate Location/Type
Thu 04:40:45 PM 38.1010 -85.7328 187° South 223 257 3,900  Level FlightAware ADS-B
Thu 04:41:57 PM 38.0756 -85.8094 272° West 238 274 7,300 2,833 Climbing FlightAware ADS-B
Thu 04:43:09 PM 38.0742 -85.9144 265° West 270 311 10,700 2,523 Climbing FlightAware ADS-B
Thu 04:43:44 PM 38.0693 -85.9748 264° West 305 351 11,800 3,000 Climbing FlightAware ADS-B (YPEF)
Thu 04:44:25 PM 38.0641 -86.0483 266° West 312 359 14,500 3,806 Climbing FlightAware ADS-B (YPEF)
Thu 04:45:17 PM 38.0577 -86.1436 264° West 319 367 17,700 3,457 Climbing FlightAware ADS-B (YPEF)
Thu 04:45:57 PM 38.0514 -86.2193 264° West 324 373 19,800 3,167 Climbing FlightAware ADS-B (YPEF)
Thu 04:46:29 PM 38.0470 -86.2810 265° West 334 384 21,500 1,193 Climbing FlightAware ADS-B (YPEF)
Thu 04:48:38 PM 38.0284 -86.5298 265° West 345 397 23,000 1,440 Climbing FlightAware ADS-B
Thu 04:51:29 PM 38.0023 -86.8682 264° West 381 438 28,700 1,848 Climbing FlightAware ADS-B
Thu 04:55:40 PM 37.9615 -87.3705 264° West 385 443 36,000 1,408 Climbing FlightAware ADS-B
Thu 04:56:40 PM 37.9447 -87.5717 264° West 382 440 36,000  Level Indianapolis Center
Thu 04:57:42 PM 37.9333 -87.7058 264° West 382 440 36,000  Level Indianapolis Center
Thu 04:58:45 PM 37.9214 -87.8383 264° West 380 437 36,000  Level Indianapolis Center
Thu 04:59:47 PM 37.9086 -87.9700 263° West 378 435 36,000  Level Indianapolis Center
Thu 05:00:49 PM 37.8936 -88.1278 263° West 376 433 36,000  Level Indianapolis Center
Thu 05:01:51 PM 37.8808 -88.2583 263° West 375 432 36,000  Level Indianapolis Center
Thu 05:02:53 PM 37.8678 -88.3894 263° West 374 430 36,000  Level Indianapolis Center
Thu 05:03:55 PM 37.8547 -88.5208 263° West 375 432 36,000  Level Indianapolis Center
Thu 05:04:57 PM 37.8414 -88.6519 263° West 375 432 36,000  Level Indianapolis Center
Thu 05:05:59 PM 37.8281 -88.7836 263° West 375 432 36,000  Level Indianapolis Center
Thu 05:07:01 PM 37.8147 -88.9156 263° West 376 433 36,000  Level Indianapolis Center
Thu 05:08:04 PM 37.7981 -89.0750 263° West 377 434 36,000  Level Indianapolis Center
Thu 05:09:06 PM 37.7844 -89.2081 263° West 379 436 36,000  Level Indianapolis Center
Thu 05:10:08 PM 37.7706 -89.3411 263° West 380 437 36,000  Level Indianapolis Center
Thu 05:11:10 PM 37.7564 -89.4756 262° West 382 440 36,000  Level Indianapolis Center
Thu 05:12:22 PM 37.7411 -89.6172 262° West 383 441 36,000  Level Kansas City Center
Thu 05:13:23 PM 37.7239 -89.7778 262° West 384 442 36,000  Level Kansas City Center
Thu 05:14:24 PM 37.7094 -89.9114 262° West 384 442 36,000  Level Kansas City Center
Thu 05:15:28 PM 37.6944 -90.0456 262° West 385 443 36,000  Level Kansas City Center
Thu 05:16:29 PM 37.6794 -90.1800 262° West 385 443 36,000  Level Kansas City Center
Thu 05:17:32 PM 37.6678 -90.3144 264° West 385 443 36,000  Level Kansas City Center
Thu 05:18:33 PM 37.6581 -90.4506 265° West 387 445 36,000  Level Kansas City Center
Thu 05:19:35 PM 37.6483 -90.5867 265° West 388 447 36,000  Level Kansas City Center
Thu 05:20:38 PM 37.6364 -90.7492 265° West 388 447 36,000  Level Kansas City Center
Thu 05:21:39 PM 37.6264 -90.8842 265° West 387 445 36,000  Level Kansas City Center
Thu 05:22:40 PM 37.6150 -91.0317 264° West 386 444 36,000  Level Kansas City Center
Thu 05:23:44 PM 37.6047 -91.1656 265° West 384 442 36,000  Level Kansas City Center
Thu 05:24:45 PM 37.5944 -91.2972 264° West 379 436 36,000  Level Kansas City Center
Thu 05:25:47 PM 37.5842 -91.4269 264° West 373 429 36,000  Level Kansas City Center
Thu 05:26:50 PM 37.5739 -91.5550 264° West 368 423 36,000  Level Kansas City Center
Thu 05:27:50 PM 37.5636 -91.6817 264° West 366 421 36,000  Level Kansas City Center
Thu 05:28:54 PM 37.5531 -91.8078 264° West 363 418 36,000  Level Kansas City Center
Thu 05:29:55 PM 37.5403 -91.9592 264° West 361 415 36,000  Level Kansas City Center
Thu 05:30:59 PM 37.5297 -92.0853 264° West 361 415 36,000  Level Kansas City Center
Thu 05:38:00 PM 37.4497 -92.9782 263° West 366 421 36,000  Level FlightAware ADS-B
Thu 05:39:31 PM 37.4312 -93.1739 263° West 367 422 36,000  Level FlightAware ADS-B
Thu 05:40:13 PM 37.4228 -93.2619 263° West 367 422 36,000  Level FlightAware ADS-B
Thu 05:40:46 PM 37.4160 -93.3326 263° West 367 422 36,000  Level FlightAware ADS-B
Thu 05:41:17 PM 37.4097 -93.3973 263° West 367 422 36,000  Level FlightAware ADS-B
Thu 05:41:47 PM 37.4051 -93.4442 263° West 368 423 36,000  Level FlightAware ADS-B
Thu 05:42:32 PM 37.3960 -93.5380 263° West 369 425 36,000  Level FlightAware ADS-B
Thu 05:43:02 PM 37.3879 -93.6199 263° West 370 426 36,000  Level FlightAware ADS-B
Thu 05:43:32 PM 37.3817 -93.6828 263° West 370 426 36,000  Level FlightAware ADS-B
Thu 05:44:17 PM 37.3719 -93.7801 263° West 371 427 36,000  Level FlightAware ADS-B
Thu 05:45:02 PM 37.3623 -93.8751 263° West 372 428 36,000  Level FlightAware ADS-B
Thu 05:45:32 PM 37.3582 -93.9151 263° West 373 429 36,000  Level FlightAware ADS-B
Thu 05:46:30 PM 37.3442 -94.0536 263° West 371 427 36,000  Level Kansas City Center
Thu 05:47:30 PM 37.3311 -94.1783 263° West 373 429 36,000  Level Kansas City Center
Thu 05:48:34 PM 37.3175 -94.3081 263° West 374 430 36,000  Level Kansas City Center
Thu 05:49:36 PM 37.3039 -94.4383 263° West 375 432 36,000  Level Kansas City Center
Thu 05:50:37 PM 37.2900 -94.5686 262° West 375 432 36,000  Level Kansas City Center
Thu 05:51:40 PM 37.2731 -94.7253 262° West 377 434 36,000  Level Kansas City Center
Thu 05:52:41 PM 37.2586 -94.8567 262° West 379 436 36,000  Level Kansas City Center
Thu 05:53:42 PM 37.2442 -94.9883 262° West 380 437 36,000  Level Kansas City Center
Thu 05:54:45 PM 37.2292 -95.1211 262° West 382 440 36,000  Level Kansas City Center
Thu 05:55:49 PM 37.2144 -95.2536 262° West 383 441 36,000  Level Kansas City Center
Thu 05:56:49 PM 37.1961 -95.4125 262° West 384 442 36,000  Level Kansas City Center
Thu 05:57:51 PM 37.1811 -95.5453 262° West 385 443 36,000  Level Kansas City Center
Thu 05:58:52 PM 37.1656 -95.6775 262° West 385 443 36,000  Level Kansas City Center
Thu 05:59:55 PM 37.1500 -95.8100 262° West 385 443 36,000  Level Kansas City Center
Thu 06:00:59 PM 37.1344 -95.9408 262° West 383 441 36,000  Level Kansas City Center
Thu 06:01:59 PM 37.1189 -96.0706 261° West 380 437 36,000  Level Kansas City Center
Thu 06:03:00 PM 37.1003 -96.2236 261° West 374 430 36,000  Level Kansas City Center
Thu 06:04:03 PM 37.0847 -96.3503 261° West 371 427 36,000  Level Kansas City Center
Thu 06:05:07 PM 37.0692 -96.4758 261° West 369 425 36,000  Level Kansas City Center
Thu 06:06:08 PM 37.0536 -96.6008 261° West 367 422 36,000  Level Kansas City Center
Thu 06:07:10 PM 37.0381 -96.7258 261° West 366 421 36,000  Level Kansas City Center
Thu 06:08:11 PM 37.0203 -96.8650 261° West 365 420 36,000  Level Kansas City Center
Thu 06:09:14 PM 37.0042 -96.9906 261° West 365 420 36,000  Level Kansas City Center
Thu 06:10:15 PM 36.9883 -97.1158 261° West 365 420 36,000  Level Kansas City Center
Thu 06:11:18 PM 36.9717 -97.2419 261° West 366 421 36,000  Level Kansas City Center
Thu 06:12:22 PM 36.9550 -97.3683 261° West 367 422 36,000  Level Kansas City Center
Thu 06:13:23 PM 36.9347 -97.5208 261° West 369 425 36,000  Level Kansas City Center
Thu 06:14:24 PM 36.9175 -97.6486 260° West 370 426 36,000  Level Kansas City Center
Thu 06:15:29 PM 36.9003 -97.7758 260° West 371 427 36,000  Level Kansas City Center
Thu 06:16:30 PM 36.8831 -97.9042 261° West 372 428 36,000  Level Kansas City Center
Thu 06:17:30 PM 36.8653 -98.0325 260° West 373 429 36,000  Level Kansas City Center
Thu 06:18:34 PM 36.8475 -98.1611 260° West 374 430 36,000  Level Kansas City Center
Thu 06:19:35 PM 36.8294 -98.2897 260° West 375 432 36,000  Level Kansas City Center
Thu 06:20:38 PM 36.8094 -98.4319 260° West 376 433 36,000  Level Kansas City Center
Thu 06:21:39 PM 36.7911 -98.5608 260° West 376 433 36,000  Level Kansas City Center
Thu 06:22:40 PM 36.7692 -98.7153 260° West 378 435 36,000  Level Kansas City Center
Thu 06:23:43 PM 36.7503 -98.8444 260° West 379 436 36,000  Level Kansas City Center
Thu 06:24:44 PM 36.7314 -98.9753 260° West 379 436 36,000  Level Kansas City Center
Thu 06:25:47 PM 36.7125 -99.1022 260° West 379 436 36,000  Level Kansas City Center
Thu 06:26:48 PM 36.6936 -99.2303 260° West 379 436 36,000  Level Kansas City Center
Thu 06:27:52 PM 36.6747 -99.3575 260° West 377 434 36,000  Level Kansas City Center
Thu 06:28:52 PM 36.6519 -99.5086 259° West 375 432 36,000  Level Kansas City Center
Thu 06:29:56 PM 36.6328 -99.6347 259° West 374 430 36,000  Level Kansas City Center
Thu 06:30:57 PM 36.6136 -99.7606 259° West 372 428 36,000  Level Kansas City Center
Thu 06:32:01 PM 36.5944 -99.8856 259° West 371 427 36,000  Level Kansas City Center
Thu 06:33:01 PM 36.5750 -100.0106 259° West 370 426 36,000  Level Kansas City Center
Thu 06:34:05 PM 36.5514 -100.1614 259° West 371 427 36,000  Level Kansas City Center
Thu 06:35:05 PM 36.5314 -100.2878 259° West 372 428 36,000  Level Kansas City Center
Thu 06:36:09 PM 36.5100 -100.4233 259° West 373 429 36,000  Level Kansas City Center
Thu 06:37:10 PM 36.4906 -100.5453 259° West 374 430 36,000  Level Kansas City Center
Thu 06:38:11 PM 36.4708 -100.6672 259° West 375 432 36,000  Level Kansas City Center
Thu 06:39:15 PM 36.4478 -100.8094 259° West 375 432 36,000  Level Kansas City Center
Thu 06:40:16 PM 36.4258 -100.9433 259° West 375 432 36,000  Level Kansas City Center
Thu 06:41:19 PM 36.4053 -101.0692 259° West 374 430 36,000  Level Kansas City Center
Thu 06:42:19 PM 36.3844 -101.1947 258° West 374 430 36,000  Level Kansas City Center
Thu 06:42:49 PM 36.3747 -101.2533 258° West 374 430 36,000  Level Albuquerque Center
Thu 06:43:51 PM 36.3508 -101.3944 258° West 374 430 36,000  Level Albuquerque Center
Thu 06:44:53 PM 36.3306 -101.5156 258° West 374 430 36,000  Level Albuquerque Center
Thu 06:45:55 PM 36.3081 -101.6475 258° West 375 432 36,000  Level Albuquerque Center
Thu 06:46:57 PM 36.2867 -101.7733 258° West 375 432 36,000  Level Albuquerque Center
Thu 06:47:59 PM 36.2606 -101.9239 258° West 375 432 36,000  Level Albuquerque Center
Thu 06:49:01 PM 36.2389 -102.0489 258° West 374 430 36,000  Level Albuquerque Center
Thu 06:50:03 PM 36.2172 -102.1739 258° West 374 430 36,000  Level Albuquerque Center
Thu 06:51:05 PM 36.1953 -102.2986 258° West 373 429 36,000  Level Albuquerque Center
Thu 06:52:07 PM 36.1731 -102.4233 258° West 373 429 36,000  Level Albuquerque Center
Thu 06:53:10 PM 36.1508 -102.5483 258° West 374 430 36,000  Level Albuquerque Center
Thu 06:54:12 PM 36.1239 -102.6983 258° West 374 430 36,000  Level Albuquerque Center
Thu 06:55:14 PM 36.1014 -102.8231 257° West 374 430 36,000  Level Albuquerque Center
Thu 06:56:16 PM 36.0775 -102.9547 257° West 374 430 36,000  Level Albuquerque Center
Thu 06:57:18 PM 36.0542 -103.0814 257° West 374 430 36,000  Level Albuquerque Center
Thu 06:58:20 PM 36.0311 -103.2072 257° West 374 430 36,000  Level Albuquerque Center
Thu 06:59:22 PM 36.0078 -103.3331 257° West 374 430 36,000  Level Albuquerque Center
Thu 07:00:24 PM 35.9842 -103.4592 257° West 374 430 36,000  Level Albuquerque Center
Thu 07:01:26 PM 35.9564 -103.6064 257° West 375 432 36,000  Level Albuquerque Center
Thu 07:02:28 PM 35.9328 -103.7319 257° West 375 432 36,000  Level Albuquerque Center
Thu 07:03:30 PM 35.9092 -103.8567 257° West 373 429 36,000  Level Albuquerque Center
Thu 07:04:32 PM 35.8856 -103.9803 257° West 371 427 36,000  Level Albuquerque Center
Thu 07:05:35 PM 35.8617 -104.1033 257° West 370 426 36,000  Level Albuquerque Center
Thu 07:06:37 PM 35.8378 -104.2267 257° West 369 425 36,000  Level Albuquerque Center
Thu 07:12:02 PM 35.7120 -104.8841 260° West 369 425 36,000  Level FlightAware ADS-B
Thu 07:13:12 PM 35.6864 -105.0512 259° West 372 428 36,000  Level FlightAware ADS-B
Thu 07:14:23 PM 35.6628 -105.1991 259° West 374 430 36,000  Level FlightAware ADS-B
Thu 07:16:37 PM 35.6496 -105.2816 259° West 379 436 36,000  Level FlightAware ADS-B
Thu 07:18:38 PM 35.6078 -105.5428 259° West 383 441 36,000  Level FlightAware ADS-B
Thu 07:22:17 PM 35.5014 -106.1900 258° West 367 422 36,000  Level FlightAware ADS-B (KAEG)
Thu 07:22:47 PM 35.4923 -106.2445 258° West 367 422 36,000  Level FlightAware ADS-B (KAEG)
Thu 07:23:47 PM 35.4736 -106.3555 258° West 367 422 36,000  Level FlightAware ADS-B (KAEG)
Thu 07:24:20 PM 35.4604 -106.4330 258° West 368 423 36,000  Level FlightAware ADS-B (KAEG)
Thu 07:24:58 PM 35.4464 -106.5155 258° West 369 425 36,000  Level FlightAware ADS-B
Thu 07:25:46 PM 35.4311 -106.6054 258° West 371 427 36,000  Level FlightAware ADS-B (KAEG)
Thu 07:26:26 PM 35.4169 -106.6882 258° West 370 426 36,000  Level FlightAware ADS-B (KAEG)
Thu 07:26:59 PM 35.4045 -106.7602 258° West 370 426 36,000  Level FlightAware ADS-B
Thu 07:27:47 PM 35.3903 -106.8425 258° West 367 422 36,000  Level FlightAware ADS-B (KAEG)
Thu 07:28:22 PM 35.3762 -106.9240 258° West 365 420 36,000  Level FlightAware ADS-B (KAEG)
Thu 07:29:02 PM 35.3603 -107.0146 258° West 363 418 36,000  Level FlightAware ADS-B
Thu 07:29:41 PM 35.3466 -107.0927 258° West 360 414 36,000  Level FlightAware ADS-B (KAEG)
Thu 07:30:25 PM 35.3331 -107.1703 258° West 357 411 36,000  Level FlightAware ADS-B (KAEG)
Thu 07:31:06 PM 35.3154 -107.2564 254° West 354 407 36,000  Level FlightAware ADS-B
Thu 07:32:10 PM 35.2868 -107.3818 255° West 351 404 36,000  Level FlightAware ADS-B
Thu 07:33:10 PM 35.2614 -107.4970 255° West 351 404 36,000  Level FlightAware ADS-B
Thu 07:34:12 PM 35.2353 -107.6141 255° West 350 403 36,000  Level FlightAware ADS-B
Thu 07:35:16 PM 35.2080 -107.7351 255° West 352 405 36,000  Level FlightAware ADS-B
Thu 07:37:21 PM 35.1541 -107.9729 255° West 351 404 36,000  Level FlightAware ADS-B
Thu 07:38:24 PM 35.1264 -108.0941 254° West 350 403 36,000  Level FlightAware ADS-B
Thu 07:40:29 PM 35.0719 -108.3308 254° West 350 403 36,000 -476 Level FlightAware ADS-B
Thu 07:41:33 PM 35.0436 -108.4524 254° West 366 421 34,500 -945 Descending FlightAware ADS-B
Thu 07:42:36 PM 35.0139 -108.5804 254° West 387 445 34,000 -236 Descending FlightAware ADS-B
Thu 07:43:40 PM 34.9818 -108.7169 254° West 374 430 34,000  Level FlightAware ADS-B
Thu 07:44:55 PM 34.9466 -108.8665 254° West 366 421 34,000  Level FlightAware ADS-B
Thu 07:45:59 PM 34.9169 -108.9920 254° West 363 418 34,000  Level FlightAware ADS-B
Thu 07:47:03 PM 34.8871 -109.1167 254° West 364 419 34,000  Level FlightAware ADS-B
Thu 07:47:58 PM 34.8626 -109.2195 254° West 366 421 34,000  Level FlightAware ADS-B
Thu 07:50:12 PM 34.7967 -109.4923 253° West 371 427 34,000  Level FlightAware ADS-B
Thu 07:51:14 PM 34.7668 -109.6153 253° West 376 433 34,000  Level FlightAware ADS-B
Thu 07:53:12 PM 34.7068 -109.8558 249° West 385 443 34,000  Level FlightAware ADS-B
Thu 07:54:14 PM 34.6625 -109.9793 246° West 389 448 34,000  Level FlightAware ADS-B
Thu 07:55:11 PM 34.6280 -110.0709 246° West 390 449 34,000  Level FlightAware ADS-B
Thu 07:56:52 PM 34.5556 -110.2641 246° West 390 449 34,000 -1,633 Level FlightAware ADS-B
Thu 08:02:54 PM 34.2434 -110.9388 227° Southwest 352 405 21,400 -2,066 Descending FlightAware ADS-B (KPAN)
Thu 08:03:24 PM 34.2117 -110.9795 227° Southwest 347 399 20,500 -1,800 Descending FlightAware ADS-B (KPAN)
Thu 08:03:54 PM 34.1782 -111.0226 227° Southwest 343 395 19,600 -1,770 Descending FlightAware ADS-B (KPAN)
Thu 08:04:25 PM 34.1447 -111.0657 227° Southwest 340 391 18,700 -1,672 Descending FlightAware ADS-B (KPAN)
Thu 08:04:55 PM 34.1160 -111.1027 227° Southwest 333 383 17,900 -1,600 Descending FlightAware ADS-B (KPAN)
Thu 08:05:25 PM 34.0812 -111.1477 227° Southwest 330 380 17,100 -1,600 Descending FlightAware ADS-B (KPAN)
Thu 08:05:55 PM 34.0531 -111.1836 227° Southwest 326 375 16,300 -1,800 Descending FlightAware ADS-B (KPAN)
Thu 08:06:35 PM 34.0093 -111.2398 227° Southwest 323 372 15,000 -1,703 Descending FlightAware ADS-B (KPAN)
Thu 08:07:09 PM 33.9755 -111.2830 227° Southwest 319 367 14,200 -1,658 Descending FlightAware ADS-B (KPAN)
Thu 08:07:51 PM 33.9333 -111.3333 227° Southwest 314 361 12,900 -1,517 Descending Phoenix TRACON
Thu 08:08:36 PM 33.8942 -111.3892 230° Southwest 308 354 12,000 -1,009 Descending Albuquerque Center
Thu 08:09:38 PM 33.8386 -111.4422 218° Southwest 255 293 11,100 -720 Descending Albuquerque Center
Thu 08:10:41 PM 33.7864 -111.4881 216° Southwest 234 269 10,500 -576 Descending Albuquerque Center
Thu 08:11:43 PM 33.7342 -111.5319 215° Southwest 232 267 9,900 -823 Descending Albuquerque Center
Thu 08:12:45 PM 33.6833 -111.5753 215° Southwest 228 262 8,800 -1,258 Descending Albuquerque Center
Thu 08:13:47 PM 33.6217 -111.6278 215° Southwest 226 260 7,300 -1,306 Descending Albuquerque Center
Thu 08:14:49 PM 33.5700 -111.6711 215° Southwest 226 260 6,100 -1,113 Descending Albuquerque Center
Thu 08:15:51 PM 33.5222 -111.7189 220° Southwest 226 260 5,000 -1,065 Descending Albuquerque Center
Thu 08:16:53 PM 33.4775 -111.7697 223° Southwest 224 258 3,900 -968 Descending Albuquerque Center
Thu 08:17:55 PM 33.4525 -111.8292 243° Southwest 198 228 3,000 -484 Descending Albuquerque Center
Thu 08:18:57 PM 33.4292 -111.8836 243° Southwest 187 215 2,900 -486 Descending Albuquerque Center
Thu 08:19:46 PM 33.4333 -111.9333 276° West 148 170 2,100 -980 Descending Phoenix TRACON
Thu 08:23:00 PM 33.4333 -112.0000 246° West  Level FlightAware Approximate

Login

Don't have an account? Register now (free) for customized features, flight alerts, and more!